sensor_id;sensor_type;location;lat;lon;timestamp;temperature;humidity
17483;DHT22;8858;52.308;20.994;2023-08-20T00:02:23;23.40;99.90
17483;DHT22;8858;52.308;20.994;2023-08-20T00:04:53;23.40;99.90
17483;DHT22;8858;52.308;20.994;2023-08-20T00:07:24;23.40;99.90
17483;DHT22;8858;52.308;20.994;2023-08-20T00:09:53;23.40;99.90
17483;DHT22;8858;52.308;20.994;2023-08-20T00:12:21;23.30;99.90
17483;DHT22;8858;52.308;20.994;2023-08-20T00:14:54;23.30;99.90
17483;DHT22;8858;52.308;20.994;2023-08-20T00:17:23;23.30;99.90
17483;DHT22;8858;52.308;20.994;2023-08-20T00:19:55;23.30;99.90
17483;DHT22;8858;52.308;20.994;2023-08-20T00:22:26;23.20;99.90
17483;DHT22;8858;52.308;20.994;2023-08-20T00:24:57;23.20;99.90
17483;DHT22;8858;52.308;20.994;2023-08-20T00:27:25;23.20;99.90
17483;DHT22;8858;52.308;20.994;2023-08-20T00:29:53;23.20;99.90
17483;DHT22;8858;52.308;20.994;2023-08-20T00:32:24;23.20;99.90
17483;DHT22;8858;52.308;20.994;2023-08-20T00:34:52;23.10;99.90
17483;DHT22;8858;52.308;20.994;2023-08-20T00:37:20;23.10;99.90
17483;DHT22;8858;52.308;20.994;2023-08-20T00:39:50;23.10;99.90
17483;DHT22;8858;52.308;20.994;2023-08-20T00:42:20;23.10;99.90
17483;DHT22;8858;52.308;20.994;2023-08-20T00:44:48;23.10;99.90
17483;DHT22;8858;52.308;20.994;2023-08-20T00:47:18;23.10;99.90
17483;DHT22;8858;52.308;20.994;2023-08-20T00:49:47;23.10;99.90
17483;DHT22;8858;52.308;20.994;2023-08-20T00:52:17;23.10;99.90
17483;DHT22;8858;52.308;20.994;2023-08-20T00:54:47;23.00;99.90
17483;DHT22;8858;52.308;20.994;2023-08-20T00:57:20;23.00;99.90
17483;DHT22;8858;52.308;20.994;2023-08-20T00:59:50;23.00;99.90
17483;DHT22;8858;52.308;20.994;2023-08-20T01:02:20;22.90;99.90
17483;DHT22;8858;52.308;20.994;2023-08-20T01:04:49;22.90;99.90
17483;DHT22;8858;52.308;20.994;2023-08-20T01:07:26;22.90;99.90
17483;DHT22;8858;52.308;20.994;2023-08-20T01:10:06;22.90;99.90
17483;DHT22;8858;52.308;20.994;2023-08-20T01:12:44;22.90;99.90
17483;DHT22;8858;52.308;20.994;2023-08-20T01:15:13;22.90;99.90
17483;DHT22;8858;52.308;20.994;2023-08-20T01:17:48;22.90;99.90
17483;DHT22;8858;52.308;20.994;2023-08-20T01:20:17;22.80;99.90
17483;DHT22;8858;52.308;20.994;2023-08-20T01:23:24;22.80;99.90
17483;DHT22;8858;52.308;20.994;2023-08-20T01:26:25;22.80;99.90
17483;DHT22;8858;52.308;20.994;2023-08-20T01:29:00;22.80;99.90
17483;DHT22;8858;52.308;20.994;2023-08-20T01:31:29;22.80;99.90
17483;DHT22;8858;52.308;20.994;2023-08-20T01:34:01;22.80;99.90
17483;DHT22;8858;52.308;20.994;2023-08-20T01:36:29;22.80;99.90
17483;DHT22;8858;52.308;20.994;2023-08-20T01:39:02;22.80;99.90
17483;DHT22;8858;52.308;20.994;2023-08-20T01:41:32;22.80;99.90
17483;DHT22;8858;52.308;20.994;2023-08-20T01:44:01;22.80;99.90
17483;DHT22;8858;52.308;20.994;2023-08-20T01:46:32;22.70;99.90
17483;DHT22;8858;52.308;20.994;2023-08-20T01:49:01;22.70;99.90
17483;DHT22;8858;52.308;20.994;2023-08-20T01:51:30;22.70;99.90
17483;DHT22;8858;52.308;20.994;2023-08-20T01:53:59;22.70;99.90
17483;DHT22;8858;52.308;20.994;2023-08-20T01:56:28;22.70;99.90
17483;DHT22;8858;52.308;20.994;2023-08-20T01:58:57;22.70;99.90
17483;DHT22;8858;52.308;20.994;2023-08-20T02:01:27;22.70;99.90
17483;DHT22;8858;52.308;20.994;2023-08-20T02:03:57;22.60;99.90
17483;DHT22;8858;52.308;20.994;2023-08-20T02:06:26;22.60;99.90
17483;DHT22;8858;52.308;20.994;2023-08-20T02:08:58;22.60;99.90
17483;DHT22;8858;52.308;20.994;2023-08-20T02:11:26;22.60;99.90
17483;DHT22;8858;52.308;20.994;2023-08-20T02:13:55;22.60;99.90
17483;DHT22;8858;52.308;20.994;2023-08-20T02:16:24;22.60;99.90
17483;DHT22;8858;52.308;20.994;2023-08-20T02:18:54;22.60;99.90
17483;DHT22;8858;52.308;20.994;2023-08-20T02:21:24;22.60;99.90
17483;DHT22;8858;52.308;20.994;2023-08-20T02:23:53;22.60;99.90
17483;DHT22;8858;52.308;20.994;2023-08-20T02:26:21;22.60;99.90
17483;DHT22;8858;52.308;20.994;2023-08-20T02:28:54;22.50;99.90
17483;DHT22;8858;52.308;20.994;2023-08-20T02:31:22;22.50;99.90
17483;DHT22;8858;52.308;20.994;2023-08-20T02:33:50;22.50;99.90
17483;DHT22;8858;52.308;20.994;2023-08-20T02:36:21;22.50;99.90
17483;DHT22;8858;52.308;20.994;2023-08-20T02:38:50;22.50;99.90
17483;DHT22;8858;52.308;20.994;2023-08-20T02:41:42;22.50;99.90
17483;DHT22;8858;52.308;20.994;2023-08-20T02:44:11;22.50;99.90
17483;DHT22;8858;52.308;20.994;2023-08-20T02:46:40;22.50;99.90
17483;DHT22;8858;52.308;20.994;2023-08-20T02:49:09;22.50;99.90
17483;DHT22;8858;52.308;20.994;2023-08-20T02:51:39;22.50;99.90
17483;DHT22;8858;52.308;20.994;2023-08-20T02:54:09;22.40;99.90
17483;DHT22;8858;52.308;20.994;2023-08-20T02:56:38;22.40;99.90
17483;DHT22;8858;52.308;20.994;2023-08-20T02:59:06;22.40;99.90
17483;DHT22;8858;52.308;20.994;2023-08-20T03:01:35;22.40;99.90
17483;DHT22;8858;52.308;20.994;2023-08-20T03:04:06;22.40;99.90
17483;DHT22;8858;52.308;20.994;2023-08-20T03:06:35;22.40;99.90
17483;DHT22;8858;52.308;20.994;2023-08-20T03:09:05;22.40;99.90
17483;DHT22;8858;52.308;20.994;2023-08-20T03:11:34;22.30;99.90
17483;DHT22;8858;52.308;20.994;2023-08-20T03:14:04;22.30;99.90
17483;DHT22;8858;52.308;20.994;2023-08-20T03:16:38;22.30;99.90
17483;DHT22;8858;52.308;20.994;2023-08-20T03:19:07;22.30;99.90
17483;DHT22;8858;52.308;20.994;2023-08-20T03:21:35;22.30;99.90
17483;DHT22;8858;52.308;20.994;2023-08-20T03:24:06;22.30;99.90
17483;DHT22;8858;52.308;20.994;2023-08-20T03:26:35;22.30;99.90
17483;DHT22;8858;52.308;20.994;2023-08-20T03:29:07;22.30;99.90
17483;DHT22;8858;52.308;20.994;2023-08-20T03:31:37;22.30;99.90
17483;DHT22;8858;52.308;20.994;2023-08-20T03:34:08;22.20;99.90
17483;DHT22;8858;52.308;20.994;2023-08-20T03:36:38;22.30;99.90
17483;DHT22;8858;52.308;20.994;2023-08-20T03:39:11;22.20;99.90
17483;DHT22;8858;52.308;20.994;2023-08-20T03:41:40;22.20;99.90
17483;DHT22;8858;52.308;20.994;2023-08-20T03:44:09;22.20;99.90
17483;DHT22;8858;52.308;20.994;2023-08-20T03:46:38;22.20;99.90
17483;DHT22;8858;52.308;20.994;2023-08-20T03:49:07;22.20;99.90
17483;DHT22;8858;52.308;20.994;2023-08-20T03:51:36;22.20;99.90
17483;DHT22;8858;52.308;20.994;2023-08-20T03:54:05;22.20;99.90
17483;DHT22;8858;52.308;20.994;2023-08-20T03:56:36;22.10;99.90
17483;DHT22;8858;52.308;20.994;2023-08-20T03:59:04;22.20;99.90
17483;DHT22;8858;52.308;20.994;2023-08-20T04:01:33;22.20;99.90
17483;DHT22;8858;52.308;20.994;2023-08-20T04:04:05;22.20;99.90
17483;DHT22;8858;52.308;20.994;2023-08-20T04:06:33;22.20;99.90
17483;DHT22;8858;52.308;20.994;2023-08-20T04:09:02;22.20;99.90
17483;DHT22;8858;52.308;20.994;2023-08-20T04:11:32;22.20;99.90
17483;DHT22;8858;52.308;20.994;2023-08-20T04:14:04;22.20;99.90
17483;DHT22;8858;52.308;20.994;2023-08-20T04:16:33;22.20;99.90
17483;DHT22;8858;52.308;20.994;2023-08-20T04:19:02;22.20;99.90
17483;DHT22;8858;52.308;20.994;2023-08-20T04:21:30;22.20;99.90
17483;DHT22;8858;52.308;20.994;2023-08-20T04:24:02;22.20;99.90
17483;DHT22;8858;52.308;20.994;2023-08-20T04:26:31;22.20;99.90
17483;DHT22;8858;52.308;20.994;2023-08-20T04:29:00;22.20;99.90
17483;DHT22;8858;52.308;20.994;2023-08-20T04:31:31;22.30;99.90
17483;DHT22;8858;52.308;20.994;2023-08-20T04:34:05;22.30;99.90
17483;DHT22;8858;52.308;20.994;2023-08-20T04:36:48;22.30;99.90
17483;DHT22;8858;52.308;20.994;2023-08-20T04:39:17;22.30;99.90
17483;DHT22;8858;52.308;20.994;2023-08-20T04:41:49;22.30;99.90
17483;DHT22;8858;52.308;20.994;2023-08-20T04:44:21;22.30;99.90
17483;DHT22;8858;52.308;20.994;2023-08-20T04:46:56;22.30;99.90
17483;DHT22;8858;52.308;20.994;2023-08-20T04:49:25;22.30;99.90
17483;DHT22;8858;52.308;20.994;2023-08-20T04:51:56;22.30;99.90
17483;DHT22;8858;52.308;20.994;2023-08-20T04:54:24;22.40;99.90
17483;DHT22;8858;52.308;20.994;2023-08-20T04:56:53;22.40;99.90
17483;DHT22;8858;52.308;20.994;2023-08-20T04:59:23;22.40;99.90
17483;DHT22;8858;52.308;20.994;2023-08-20T05:02:19;22.40;99.90
17483;DHT22;8858;52.308;20.994;2023-08-20T05:04:57;22.40;99.90
17483;DHT22;8858;52.308;20.994;2023-08-20T05:07:26;22.50;99.90
17483;DHT22;8858;52.308;20.994;2023-08-20T05:09:59;22.50;99.90
17483;DHT22;8858;52.308;20.994;2023-08-20T05:12:31;22.50;99.90
17483;DHT22;8858;52.308;20.994;2023-08-20T05:15:01;22.60;99.90
17483;DHT22;8858;52.308;20.994;2023-08-20T05:17:31;22.50;99.90
17483;DHT22;8858;52.308;20.994;2023-08-20T05:20:00;22.60;99.90
17483;DHT22;8858;52.308;20.994;2023-08-20T05:22:29;22.60;99.90
17483;DHT22;8858;52.308;20.994;2023-08-20T05:25:00;22.60;99.90
17483;DHT22;8858;52.308;20.994;2023-08-20T05:27:31;22.70;99.90
17483;DHT22;8858;52.308;20.994;2023-08-20T05:30:05;22.70;99.90
17483;DHT22;8858;52.308;20.994;2023-08-20T05:32:39;22.80;99.90
17483;DHT22;8858;52.308;20.994;2023-08-20T05:35:10;22.80;99.90
17483;DHT22;8858;52.308;20.994;2023-08-20T05:37:41;22.90;99.90
17483;DHT22;8858;52.308;20.994;2023-08-20T05:40:10;22.90;99.90
17483;DHT22;8858;52.308;20.994;2023-08-20T05:42:39;22.90;99.90
17483;DHT22;8858;52.308;20.994;2023-08-20T05:45:09;22.90;99.90
17483;DHT22;8858;52.308;20.994;2023-08-20T05:47:39;23.00;99.90
17483;DHT22;8858;52.308;20.994;2023-08-20T05:50:08;23.00;99.90
17483;DHT22;8858;52.308;20.994;2023-08-20T05:52:39;23.10;99.90
17483;DHT22;8858;52.308;20.994;2023-08-20T05:55:07;23.10;99.90
17483;DHT22;8858;52.308;20.994;2023-08-20T05:57:37;23.20;99.90
17483;DHT22;8858;52.308;20.994;2023-08-20T06:00:06;23.20;99.90
17483;DHT22;8858;52.308;20.994;2023-08-20T06:02:42;23.20;99.90
17483;DHT22;8858;52.308;20.994;2023-08-20T06:05:16;23.30;99.90
17483;DHT22;8858;52.308;20.994;2023-08-20T06:07:44;23.30;99.90
17483;DHT22;8858;52.308;20.994;2023-08-20T06:10:13;23.40;99.90
17483;DHT22;8858;52.308;20.994;2023-08-20T06:12:43;23.40;99.90
17483;DHT22;8858;52.308;20.994;2023-08-20T06:15:11;23.50;99.90
17483;DHT22;8858;52.308;20.994;2023-08-20T06:17:43;23.50;99.90
17483;DHT22;8858;52.308;20.994;2023-08-20T06:20:11;23.50;99.90
17483;DHT22;8858;52.308;20.994;2023-08-20T06:22:40;23.60;99.90
17483;DHT22;8858;52.308;20.994;2023-08-20T06:25:10;23.60;99.90
17483;DHT22;8858;52.308;20.994;2023-08-20T06:27:39;23.70;99.90
17483;DHT22;8858;52.308;20.994;2023-08-20T06:30:09;23.70;99.90
17483;DHT22;8858;52.308;20.994;2023-08-20T06:32:37;23.70;99.90
17483;DHT22;8858;52.308;20.994;2023-08-20T06:35:08;23.80;99.90
17483;DHT22;8858;52.308;20.994;2023-08-20T06:37:40;23.80;99.90
17483;DHT22;8858;52.308;20.994;2023-08-20T06:40:09;23.80;99.90
17483;DHT22;8858;52.308;20.994;2023-08-20T06:42:37;23.90;99.90
17483;DHT22;8858;52.308;20.994;2023-08-20T06:45:07;24.00;99.90
17483;DHT22;8858;52.308;20.994;2023-08-20T06:47:36;24.00;99.90
17483;DHT22;8858;52.308;20.994;2023-08-20T06:50:08;24.10;99.90
17483;DHT22;8858;52.308;20.994;2023-08-20T06:52:37;24.10;99.90
17483;DHT22;8858;52.308;20.994;2023-08-20T06:55:06;24.10;99.90
17483;DHT22;8858;52.308;20.994;2023-08-20T06:57:35;24.20;99.90
17483;DHT22;8858;52.308;20.994;2023-08-20T07:00:05;24.20;99.90
17483;DHT22;8858;52.308;20.994;2023-08-20T07:02:57;24.30;99.90
17483;DHT22;8858;52.308;20.994;2023-08-20T07:05:27;24.30;99.90
17483;DHT22;8858;52.308;20.994;2023-08-20T07:07:55;24.40;99.90
17483;DHT22;8858;52.308;20.994;2023-08-20T07:10:24;24.40;99.90
17483;DHT22;8858;52.308;20.994;2023-08-20T07:12:52;24.50;99.90
17483;DHT22;8858;52.308;20.994;2023-08-20T07:15:21;24.50;99.90
17483;DHT22;8858;52.308;20.994;2023-08-20T07:17:49;24.60;99.90
17483;DHT22;8858;52.308;20.994;2023-08-20T07:20:17;24.60;99.90
17483;DHT22;8858;52.308;20.994;2023-08-20T07:22:48;24.70;99.90
17483;DHT22;8858;52.308;20.994;2023-08-20T07:25:18;24.70;99.90
17483;DHT22;8858;52.308;20.994;2023-08-20T07:27:46;24.80;99.90
17483;DHT22;8858;52.308;20.994;2023-08-20T07:30:18;24.80;99.90
17483;DHT22;8858;52.308;20.994;2023-08-20T07:32:46;24.90;99.90
17483;DHT22;8858;52.308;20.994;2023-08-20T07:35:14;24.90;99.90
17483;DHT22;8858;52.308;20.994;2023-08-20T07:37:43;24.90;99.90
17483;DHT22;8858;52.308;20.994;2023-08-20T07:40:12;25.00;99.90
17483;DHT22;8858;52.308;20.994;2023-08-20T07:42:45;25.00;99.90
17483;DHT22;8858;52.308;20.994;2023-08-20T07:45:13;25.10;99.90
17483;DHT22;8858;52.308;20.994;2023-08-20T07:47:41;25.10;99.90
17483;DHT22;8858;52.308;20.994;2023-08-20T07:50:10;25.10;99.90
17483;DHT22;8858;52.308;20.994;2023-08-20T07:52:38;25.20;99.90
17483;DHT22;8858;52.308;20.994;2023-08-20T07:55:08;25.20;99.90
17483;DHT22;8858;52.308;20.994;2023-08-20T07:57:39;25.20;99.90
17483;DHT22;8858;52.308;20.994;2023-08-20T08:00:09;25.30;99.90
17483;DHT22;8858;52.308;20.994;2023-08-20T08:02:37;25.30;99.90
17483;DHT22;8858;52.308;20.994;2023-08-20T08:05:06;25.40;99.90
17483;DHT22;8858;52.308;20.994;2023-08-20T08:07:35;25.40;99.90
17483;DHT22;8858;52.308;20.994;2023-08-20T08:10:07;25.50;99.90
17483;DHT22;8858;52.308;20.994;2023-08-20T08:12:35;25.50;99.90
17483;DHT22;8858;52.308;20.994;2023-08-20T08:15:05;25.50;99.90
17483;DHT22;8858;52.308;20.994;2023-08-20T08:17:34;25.60;99.90
17483;DHT22;8858;52.308;20.994;2023-08-20T08:20:03;25.70;99.90
17483;DHT22;8858;52.308;20.994;2023-08-20T08:22:34;25.70;99.90
17483;DHT22;8858;52.308;20.994;2023-08-20T08:25:04;25.80;99.90
17483;DHT22;8858;52.308;20.994;2023-08-20T08:27:32;25.80;99.90
17483;DHT22;8858;52.308;20.994;2023-08-20T08:30:18;25.90;99.90
17483;DHT22;8858;52.308;20.994;2023-08-20T08:32:50;25.90;99.90
17483;DHT22;8858;52.308;20.994;2023-08-20T08:35:20;26.00;99.90
17483;DHT22;8858;52.308;20.994;2023-08-20T08:37:48;26.00;99.90
17483;DHT22;8858;52.308;20.994;2023-08-20T08:40:16;26.10;99.90
17483;DHT22;8858;52.308;20.994;2023-08-20T08:42:48;26.10;99.90
17483;DHT22;8858;52.308;20.994;2023-08-20T08:45:21;26.20;99.90
17483;DHT22;8858;52.308;20.994;2023-08-20T08:47:49;26.20;99.90
17483;DHT22;8858;52.308;20.994;2023-08-20T08:50:19;26.30;99.90
17483;DHT22;8858;52.308;20.994;2023-08-20T08:52:47;26.30;99.90
17483;DHT22;8858;52.308;20.994;2023-08-20T08:55:21;26.30;99.90
17483;DHT22;8858;52.308;20.994;2023-08-20T08:57:49;26.40;99.90
17483;DHT22;8858;52.308;20.994;2023-08-20T09:00:17;26.50;99.90
17483;DHT22;8858;52.308;20.994;2023-08-20T09:02:47;26.50;99.90
17483;DHT22;8858;52.308;20.994;2023-08-20T09:05:15;26.50;99.90
17483;DHT22;8858;52.308;20.994;2023-08-20T09:07:44;26.60;99.90
17483;DHT22;8858;52.308;20.994;2023-08-20T09:10:12;26.70;99.90
17483;DHT22;8858;52.308;20.994;2023-08-20T09:12:47;26.80;99.90
17483;DHT22;8858;52.308;20.994;2023-08-20T09:15:16;26.80;99.90
17483;DHT22;8858;52.308;20.994;2023-08-20T09:17:47;26.90;99.90
17483;DHT22;8858;52.308;20.994;2023-08-20T09:20:17;26.90;99.90
17483;DHT22;8858;52.308;20.994;2023-08-20T09:22:49;27.00;99.90
17483;DHT22;8858;52.308;20.994;2023-08-20T09:25:17;27.00;99.90
17483;DHT22;8858;52.308;20.994;2023-08-20T09:27:49;27.10;99.90
17483;DHT22;8858;52.308;20.994;2023-08-20T09:30:18;27.10;99.90
17483;DHT22;8858;52.308;20.994;2023-08-20T09:33:03;27.10;99.90
17483;DHT22;8858;52.308;20.994;2023-08-20T09:35:31;27.20;99.90
17483;DHT22;8858;52.308;20.994;2023-08-20T09:38:00;27.20;99.90
17483;DHT22;8858;52.308;20.994;2023-08-20T09:40:30;27.30;99.90
17483;DHT22;8858;52.308;20.994;2023-08-20T09:43:00;27.40;99.90
17483;DHT22;8858;52.308;20.994;2023-08-20T09:45:29;27.40;99.90
17483;DHT22;8858;52.308;20.994;2023-08-20T09:47:59;27.40;99.90
17483;DHT22;8858;52.308;20.994;2023-08-20T09:50:35;27.40;99.90
17483;DHT22;8858;52.308;20.994;2023-08-20T09:53:09;27.50;99.90
17483;DHT22;8858;52.308;20.994;2023-08-20T09:55:42;27.50;99.90
17483;DHT22;8858;52.308;20.994;2023-08-20T09:58:11;27.60;99.90
17483;DHT22;8858;52.308;20.994;2023-08-20T10:00:40;27.60;99.90
17483;DHT22;8858;52.308;20.994;2023-08-20T10:03:11;27.70;99.90
17483;DHT22;8858;52.308;20.994;2023-08-20T10:05:40;27.80;99.90
17483;DHT22;8858;52.308;20.994;2023-08-20T10:08:11;27.80;99.90
17483;DHT22;8858;52.308;20.994;2023-08-20T10:10:40;27.80;99.90
17483;DHT22;8858;52.308;20.994;2023-08-20T10:13:09;27.90;99.90
17483;DHT22;8858;52.308;20.994;2023-08-20T10:15:38;27.90;99.90
17483;DHT22;8858;52.308;20.994;2023-08-20T10:18:14;28.00;99.90
17483;DHT22;8858;52.308;20.994;2023-08-20T10:20:43;28.00;99.90
17483;DHT22;8858;52.308;20.994;2023-08-20T10:23:12;28.10;99.90
17483;DHT22;8858;52.308;20.994;2023-08-20T10:25:42;28.10;99.90
17483;DHT22;8858;52.308;20.994;2023-08-20T10:28:13;28.20;99.90
17483;DHT22;8858;52.308;20.994;2023-08-20T10:31:04;28.20;99.90
17483;DHT22;8858;52.308;20.994;2023-08-20T10:33:47;28.30;99.90
17483;DHT22;8858;52.308;20.994;2023-08-20T10:36:22;28.30;99.90
17483;DHT22;8858;52.308;20.994;2023-08-20T10:39:04;28.30;99.90
17483;DHT22;8858;52.308;20.994;2023-08-20T10:41:33;28.40;99.90
17483;DHT22;8858;52.308;20.994;2023-08-20T10:44:01;28.50;99.90
17483;DHT22;8858;52.308;20.994;2023-08-20T10:46:31;28.60;99.90
17483;DHT22;8858;52.308;20.994;2023-08-20T10:49:04;28.60;99.90
17483;DHT22;8858;52.308;20.994;2023-08-20T10:51:35;28.70;99.90
17483;DHT22;8858;52.308;20.994;2023-08-20T10:54:06;28.70;99.90
17483;DHT22;8858;52.308;20.994;2023-08-20T10:56:40;28.80;99.90
17483;DHT22;8858;52.308;20.994;2023-08-20T10:59:13;28.80;99.90
17483;DHT22;8858;52.308;20.994;2023-08-20T11:01:45;28.80;99.90
17483;DHT22;8858;52.308;20.994;2023-08-20T11:04:16;28.90;99.90
17483;DHT22;8858;52.308;20.994;2023-08-20T11:06:45;28.90;99.90
17483;DHT22;8858;52.308;20.994;2023-08-20T11:09:14;28.90;99.90
17483;DHT22;8858;52.308;20.994;2023-08-20T11:11:47;29.00;99.90
17483;DHT22;8858;52.308;20.994;2023-08-20T11:14:15;29.00;99.90
17483;DHT22;8858;52.308;20.994;2023-08-20T11:16:45;29.10;99.90
17483;DHT22;8858;52.308;20.994;2023-08-20T11:19:19;29.10;99.90
17483;DHT22;8858;52.308;20.994;2023-08-20T11:21:49;29.20;99.90
17483;DHT22;8858;52.308;20.994;2023-08-20T11:24:17;29.30;99.90
17483;DHT22;8858;52.308;20.994;2023-08-20T11:26:47;29.30;99.90
17483;DHT22;8858;52.308;20.994;2023-08-20T11:29:17;29.40;99.90
17483;DHT22;8858;52.308;20.994;2023-08-20T11:31:48;29.50;99.90
17483;DHT22;8858;52.308;20.994;2023-08-20T11:34:19;29.60;99.90
17483;DHT22;8858;52.308;20.994;2023-08-20T11:36:47;29.60;99.90
17483;DHT22;8858;52.308;20.994;2023-08-20T11:39:16;29.70;99.90
17483;DHT22;8858;52.308;20.994;2023-08-20T11:41:44;29.70;99.90
17483;DHT22;8858;52.308;20.994;2023-08-20T11:44:19;29.70;99.90
17483;DHT22;8858;52.308;20.994;2023-08-20T11:46:49;29.80;99.90
17483;DHT22;8858;52.308;20.994;2023-08-20T11:49:27;29.80;99.90
17483;DHT22;8858;52.308;20.994;2023-08-20T11:51:57;29.90;99.90
17483;DHT22;8858;52.308;20.994;2023-08-20T11:54:25;30.00;99.90
17483;DHT22;8858;52.308;20.994;2023-08-20T11:57:02;30.00;99.90
17483;DHT22;8858;52.308;20.994;2023-08-20T11:59:32;30.10;99.90
17483;DHT22;8858;52.308;20.994;2023-08-20T12:02:01;30.10;99.90
17483;DHT22;8858;52.308;20.994;2023-08-20T12:04:34;30.10;99.90
17483;DHT22;8858;52.308;20.994;2023-08-20T12:07:03;30.20;99.90
17483;DHT22;8858;52.308;20.994;2023-08-20T12:09:33;30.30;99.90
17483;DHT22;8858;52.308;20.994;2023-08-20T12:12:02;30.30;99.90
17483;DHT22;8858;52.308;20.994;2023-08-20T12:14:30;30.40;99.90
17483;DHT22;8858;52.308;20.994;2023-08-20T12:17:02;30.40;99.90
17483;DHT22;8858;52.308;20.994;2023-08-20T12:19:31;30.50;99.90
17483;DHT22;8858;52.308;20.994;2023-08-20T12:22:00;30.60;99.90
17483;DHT22;8858;52.308;20.994;2023-08-20T12:24:29;30.70;99.90
17483;DHT22;8858;52.308;20.994;2023-08-20T12:26:57;30.80;99.90
17483;DHT22;8858;52.308;20.994;2023-08-20T12:29:26;30.90;99.90
17483;DHT22;8858;52.308;20.994;2023-08-20T12:31:58;31.00;99.90
17483;DHT22;8858;52.308;20.994;2023-08-20T12:34:28;31.00;99.90
17483;DHT22;8858;52.308;20.994;2023-08-20T12:36:56;31.00;99.90
17483;DHT22;8858;52.308;20.994;2023-08-20T12:39:26;31.10;99.90
17483;DHT22;8858;52.308;20.994;2023-08-20T12:42:01;31.20;99.90
17483;DHT22;8858;52.308;20.994;2023-08-20T12:44:30;31.20;99.90
17483;DHT22;8858;52.308;20.994;2023-08-20T12:46:59;31.20;99.90
17483;DHT22;8858;52.308;20.994;2023-08-20T12:49:27;31.20;99.90
17483;DHT22;8858;52.308;20.994;2023-08-20T12:51:55;31.40;99.90
17483;DHT22;8858;52.308;20.994;2023-08-20T12:54:26;31.40;99.90
17483;DHT22;8858;52.308;20.994;2023-08-20T12:56:55;31.40;99.90
17483;DHT22;8858;52.308;20.994;2023-08-20T12:59:24;31.40;99.90
17483;DHT22;8858;52.308;20.994;2023-08-20T13:01:53;31.40;99.90
17483;DHT22;8858;52.308;20.994;2023-08-20T13:04:22;31.40;99.90
17483;DHT22;8858;52.308;20.994;2023-08-20T13:06:51;31.40;99.90
17483;DHT22;8858;52.308;20.994;2023-08-20T13:09:24;31.40;99.90
17483;DHT22;8858;52.308;20.994;2023-08-20T13:11:57;31.40;99.90
17483;DHT22;8858;52.308;20.994;2023-08-20T13:14:26;31.50;99.90
17483;DHT22;8858;52.308;20.994;2023-08-20T13:16:56;31.60;99.90
17483;DHT22;8858;52.308;20.994;2023-08-20T13:19:25;31.60;99.90
17483;DHT22;8858;52.308;20.994;2023-08-20T13:21:54;31.70;99.90
17483;DHT22;8858;52.308;20.994;2023-08-20T13:24:22;31.80;99.90
17483;DHT22;8858;52.308;20.994;2023-08-20T13:26:51;31.90;99.90
17483;DHT22;8858;52.308;20.994;2023-08-20T13:29:21;32.00;99.90
17483;DHT22;8858;52.308;20.994;2023-08-20T13:31:51;32.00;99.90
17483;DHT22;8858;52.308;20.994;2023-08-20T13:34:19;32.20;99.90
17483;DHT22;8858;52.308;20.994;2023-08-20T13:36:48;32.20;99.90
17483;DHT22;8858;52.308;20.994;2023-08-20T13:39:16;32.30;99.90
17483;DHT22;8858;52.308;20.994;2023-08-20T13:41:49;32.40;99.90
17483;DHT22;8858;52.308;20.994;2023-08-20T13:44:21;32.50;99.90
17483;DHT22;8858;52.308;20.994;2023-08-20T13:46:49;32.60;99.90
17483;DHT22;8858;52.308;20.994;2023-08-20T13:49:17;32.60;99.90
17483;DHT22;8858;52.308;20.994;2023-08-20T13:51:45;32.60;99.90
17483;DHT22;8858;52.308;20.994;2023-08-20T13:54:13;32.60;99.90
17483;DHT22;8858;52.308;20.994;2023-08-20T13:56:41;32.60;99.90
17483;DHT22;8858;52.308;20.994;2023-08-20T13:59:10;32.60;99.90
17483;DHT22;8858;52.308;20.994;2023-08-20T14:01:40;32.70;99.90
17483;DHT22;8858;52.308;20.994;2023-08-20T14:04:08;32.80;99.90
17483;DHT22;8858;52.308;20.994;2023-08-20T14:06:36;32.90;99.90
17483;DHT22;8858;52.308;20.994;2023-08-20T14:09:05;33.10;99.90
17483;DHT22;8858;52.308;20.994;2023-08-20T14:11:33;33.10;99.90
17483;DHT22;8858;52.308;20.994;2023-08-20T14:14:01;33.10;99.90
17483;DHT22;8858;52.308;20.994;2023-08-20T14:16:29;33.10;99.90
17483;DHT22;8858;52.308;20.994;2023-08-20T14:18:59;33.10;99.90
17483;DHT22;8858;52.308;20.994;2023-08-20T14:21:27;33.00;99.90
17483;DHT22;8858;52.308;20.994;2023-08-20T14:23:57;32.90;99.90
17483;DHT22;8858;52.308;20.994;2023-08-20T14:26:25;32.90;99.90
17483;DHT22;8858;52.308;20.994;2023-08-20T14:28:54;33.00;99.90
17483;DHT22;8858;52.308;20.994;2023-08-20T14:31:22;32.90;99.90
17483;DHT22;8858;52.308;20.994;2023-08-20T14:33:50;32.90;99.90
17483;DHT22;8858;52.308;20.994;2023-08-20T14:36:23;33.00;99.90
17483;DHT22;8858;52.308;20.994;2023-08-20T14:38:52;33.10;99.90
17483;DHT22;8858;52.308;20.994;2023-08-20T14:41:20;33.10;99.90
17483;DHT22;8858;52.308;20.994;2023-08-20T14:43:48;33.10;99.90
17483;DHT22;8858;52.308;20.994;2023-08-20T14:46:16;33.10;99.90
17483;DHT22;8858;52.308;20.994;2023-08-20T14:48:45;33.20;99.90
17483;DHT22;8858;52.308;20.994;2023-08-20T14:51:14;33.30;99.90
17483;DHT22;8858;52.308;20.994;2023-08-20T14:53:43;33.40;99.90
17483;DHT22;8858;52.308;20.994;2023-08-20T14:56:11;33.30;99.90
17483;DHT22;8858;52.308;20.994;2023-08-20T14:58:41;33.30;99.90
17483;DHT22;8858;52.308;20.994;2023-08-20T15:01:10;33.30;99.90
17483;DHT22;8858;52.308;20.994;2023-08-20T15:03:38;33.30;99.90
17483;DHT22;8858;52.308;20.994;2023-08-20T15:06:07;33.40;99.90
17483;DHT22;8858;52.308;20.994;2023-08-20T15:08:35;33.60;99.90
17483;DHT22;8858;52.308;20.994;2023-08-20T15:11:05;33.70;99.90
17483;DHT22;8858;52.308;20.994;2023-08-20T15:13:33;33.90;99.90
17483;DHT22;8858;52.308;20.994;2023-08-20T15:16:01;34.10;99.90
17483;DHT22;8858;52.308;20.994;2023-08-20T15:18:30;34.30;99.90
17483;DHT22;8858;52.308;20.994;2023-08-20T15:20:59;34.40;99.90
17483;DHT22;8858;52.308;20.994;2023-08-20T15:23:28;34.60;99.90
17483;DHT22;8858;52.308;20.994;2023-08-20T15:25:57;34.80;99.90
17483;DHT22;8858;52.308;20.994;2023-08-20T15:28:29;34.90;99.90
17483;DHT22;8858;52.308;20.994;2023-08-20T15:30:57;35.00;99.90
17483;DHT22;8858;52.308;20.994;2023-08-20T15:33:26;35.00;99.90
17483;DHT22;8858;52.308;20.994;2023-08-20T15:35:54;34.90;99.90
17483;DHT22;8858;52.308;20.994;2023-08-20T15:38:23;34.90;99.90
17483;DHT22;8858;52.308;20.994;2023-08-20T15:40:52;34.90;99.90
17483;DHT22;8858;52.308;20.994;2023-08-20T15:43:24;34.90;99.90
17483;DHT22;8858;52.308;20.994;2023-08-20T15:45:54;34.70;99.90
17483;DHT22;8858;52.308;20.994;2023-08-20T15:48:23;34.50;99.90
17483;DHT22;8858;52.308;20.994;2023-08-20T15:50:51;34.40;99.90